Time;durP1;ratioP1;P1;durP2;ratioP2;P2;SDS_P1;SDS_P2;PMS_P1;PMS_P2;Temp;Humidity;BMP_temperature;BMP_pressure;BME280_temperature;BME280_humidity;BME280_pressure;Samples;Min_cycle;Max_cycle;Signal;HPM_P1;HPM_P2
2021/11/24 00:00:00;;;;;;;;;;;;;;;;;;2080263;28;19929;-48
2021/11/24 00:01:01;;;;;;;;;;;;;;;;;;2075382;28;19925;-48
2021/11/24 00:02:02;;;;;;;;;;;;;;;;;;2081427;28;20172;-49
2021/11/24 00:03:03;;;;;;;;;;;;;;;;;;2076165;28;19925;-43
2021/11/24 00:04:04;;;;;;;;;;;;;;;;;;2074751;28;19937;-43
2021/11/24 00:05:05;;;;;;;;;;;;;;;;;;2073047;28;20008;-44
2021/11/24 00:06:06;;;;;;;;;;;;;;;;;;2071968;28;19979;-43
2021/11/24 00:07:07;;;;;;;;;;;;;;;;;;2077477;28;20011;-43
2021/11/24 00:08:08;;;;;;;;;;;;;;;;;;2081243;28;20086;-43
2021/11/24 00:09:09;;;;;;;;;;;;;;;;;;2076806;28;19925;-43
2021/11/24 00:10:09;;;;;;;;;;;;;;;;;;2075448;28;20466;-43
2021/11/24 00:11:10;;;;;;;;;;;;;;;;;;2072791;28;19937;-43
2021/11/24 00:12:12;;;;;;;;;;;;;;;;;;2071648;28;20016;-43
2021/11/24 00:13:12;;;;;;;;;;;;;;;;;;2074960;28;20017;-44
2021/11/24 00:14:13;;;;;;;;;;;;;;;;;;2073047;28;20456;-43
2021/11/24 00:15:14;;;;;;;;;;;;;;;;;;2071982;28;20012;-43
2021/11/24 00:16:15;;;;;;;;;;;;;;;;;;2079061;28;19929;-43
2021/11/24 00:17:16;;;;;;;;;;;;;;;;;;2081091;28;20405;-43
2021/11/24 00:18:17;;;;;;;;;;;;;;;;;;2076561;28;20361;-43
2021/11/24 00:19:18;;;;;;;;;;;;;;;;;;2073894;28;20068;-43
2021/11/24 00:20:19;;;;;;;;;;;;;;;;;;2073129;28;19926;-43
2021/11/24 00:21:20;;;;;;;;;;;;;;;;;;2071965;28;20024;-43
2021/11/24 00:22:21;;;;;;;;;;;;;;;;;;2072954;28;20326;-43
2021/11/24 00:23:22;;;;;;;;;;;;;;;;;;2072937;28;19926;-43
2021/11/24 00:24:23;;;;;;;;;;;;;;;;;;2074106;28;20000;-44
2021/11/24 00:25:24;;;;;;;;;;;;;;;;;;2081571;28;19932;-47
2021/11/24 00:26:25;;;;;;;;;;;;;;;;;;2080365;28;20286;-44
2021/11/24 00:27:26;;;;;;;;;;;;;;;;;;2075024;28;19925;-43
2021/11/24 00:28:26;;;;;;;;;;;;;;;;;;2081168;28;20528;-43
2021/11/24 00:29:27;;;;;;;;;;;;;;;;;;2079638;28;19951;-43
2021/11/24 00:30:28;;;;;;;;;;;;;;;;;;2075717;28;19925;-45
2021/11/24 00:31:29;;;;;;;;;;;;;;;;;;2081298;28;20023;-43
2021/11/24 00:32:30;;;;;;;;;;;;;;;;;;2078320;28;19933;-44
2021/11/24 00:33:31;;;;;;;;;;;;;;;;;;2075626;28;19957;-43
2021/11/24 00:34:32;;;;;;;;;;;;;;;;;;2081188;28;19925;-43
2021/11/24 00:35:33;;;;;;;;;;;;;;;;;;2077071;28;20020;-43
2021/11/24 00:36:34;;;;;;;;;;;;;;;;;;2076341;28;19925;-43
2021/11/24 00:37:35;;;;;;;;;;;;;;;;;;2081018;28;20062;-43
2021/11/24 00:38:36;;;;;;;;;;;;;;;;;;2076514;28;19933;-44
2021/11/24 00:39:37;;;;;;;;;;;;;;;;;;2074947;28;20342;-43
2021/11/24 00:40:38;;;;;;;;;;;;;;;;;;2073000;28;19931;-43
2021/11/24 00:41:39;;;;;;;;;;;;;;;;;;2071807;28;20009;-43
2021/11/24 00:42:40;;;;;;;;;;;;;;;;;;2079428;28;20083;-43
2021/11/24 00:43:41;;;;;;;;;;;;;;;;;;2082490;28;19933;-43
2021/11/24 00:44:42;;;;;;;;;;;;;;;;;;2077076;28;19965;-43
2021/11/24 00:45:43;;;;;;;;;;;;;;;;;;2080953;28;19932;-43
2021/11/24 00:46:44;;;;;;;;;;;;;;;;;;2082528;28;19925;-43
2021/11/24 00:47:46;;;;;;;;;;;;;;;;;;2076133;28;20020;-43
2021/11/24 00:48:47;;;;;;;;;;;;;;;;;;2081904;28;19947;-43
2021/11/24 00:49:47;;;;;;;;;;;;;;;;;;2082433;28;19961;-43
2021/11/24 00:50:48;;;;;;;;;;;;;;;;;;2075631;28;19925;-44
2021/11/24 00:51:50;;;;;;;;;;;;;;;;;;2082216;28;20016;-44
2021/11/24 00:52:52;;;;;;;;;;;;;;;;;;2082487;28;19932;-43
2021/11/24 00:53:53;;;;;;;;;;;;;;;;;;2075308;28;19961;-43
2021/11/24 00:54:53;;;;;;;;;;;;;;;;;;2082357;28;19925;-44
2021/11/24 00:55:55;;;;;;;;;;;;;;;;;;2082553;28;19925;-45
2021/11/24 00:56:55;;;;;;;;;;;;;;;;;;2075292;28;20012;-43
2021/11/24 00:57:56;;;;;;;;;;;;;;;;;;2082566;28;19925;-44
2021/11/24 00:58:57;;;;;;;;;;;;;;;;;;2082371;28;20016;-43
2021/11/24 00:59:58;;;;;;;;;;;;;;;;;;2074374;28;19947;-43
2021/11/24 01:00:59;;;;;;;;;;;;;;;;;;2082421;28;20387;-43
2021/11/24 01:02:00;;;;;;;;;;;;;;;;;;2081381;28;20028;-43
2021/11/24 01:03:01;;;;;;;;;;;;;;;;;;2073567;28;19929;-44
2021/11/24 01:04:02;;;;;;;;;;;;;;;;;;2082384;28;20392;-43
2021/11/24 01:05:03;;;;;;;;;;;;;;;;;;2081008;28;19925;-44
2021/11/24 01:06:08;;;;;;;;;;;;;;;;;;2074000;28;19925;-44
2021/11/24 01:07:09;;;;;;;;;;;;;;;;;;2073806;28;20402;-42
2021/11/24 01:08:10;;;;;;;;;;;;;;;;;;2073201;28;19930;-44
2021/11/24 01:09:11;;;;;;;;;;;;;;;;;;2080827;28;20430;-44
2021/11/24 01:10:12;;;;;;;;;;;;;;;;;;2082261;28;19925;-44
2021/11/24 01:11:13;;;;;;;;;;;;;;;;;;2077585;28;20414;-44
2021/11/24 01:12:14;;;;;;;;;;;;;;;;;;2074583;28;19947;-43
2021/11/24 01:13:15;;;;;;;;;;;;;;;;;;2074089;28;19932;-43
2021/11/24 01:14:15;;;;;;;;;;;;;;;;;;2074096;28;20082;-44
2021/11/24 01:15:17;;;;;;;;;;;;;;;;;;2073016;28;19929;-44
2021/11/24 01:16:18;;;;;;;;;;;;;;;;;;2074110;28;20284;-44
2021/11/24 01:17:19;;;;;;;;;;;;;;;;;;2074901;28;19952;-44
2021/11/24 01:18:22;;;;;;;;;;;;;;;;;;2074121;28;20016;-43
2021/11/24 01:19:23;;;;;;;;;;;;;;;;;;2074105;28;19948;-44
2021/11/24 01:20:24;;;;;;;;;;;;;;;;;;2074406;28;19975;-43
2021/11/24 01:21:25;;;;;;;;;;;;;;;;;;2082210;28;20011;-43
2021/11/24 01:22:26;;;;;;;;;;;;;;;;;;2082222;28;19925;-44
2021/11/24 01:23:27;;;;;;;;;;;;;;;;;;2075225;28;20016;-44
2021/11/24 01:24:28;;;;;;;;;;;;;;;;;;2082187;28;19925;-43
2021/11/24 01:25:29;;;;;;;;;;;;;;;;;;2081283;28;20027;-43
2021/11/24 01:26:30;;;;;;;;;;;;;;;;;;2075078;28;20016;-43
2021/11/24 01:27:31;;;;;;;;;;;;;;;;;;2082238;28;19933;-44
2021/11/24 01:28:32;;;;;;;;;;;;;;;;;;2080562;28;20012;-43
2021/11/24 01:29:33;;;;;;;;;;;;;;;;;;2074307;28;19942;-44
2021/11/24 01:30:34;;;;;;;;;;;;;;;;;;2074057;28;19929;-43
2021/11/24 01:31:35;;;;;;;;;;;;;;;;;;2073060;28;19926;-44
2021/11/24 01:32:36;;;;;;;;;;;;;;;;;;2078319;28;19947;-43
2021/11/24 01:33:37;;;;;;;;;;;;;;;;;;2082239;28;20012;-43
2021/11/24 01:34:38;;;;;;;;;;;;;;;;;;2077791;28;20025;-43
2021/11/24 01:35:39;;;;;;;;;;;;;;;;;;2079785;28;20020;-43
2021/11/24 01:36:40;;;;;;;;;;;;;;;;;;2082118;28;19975;-43
2021/11/24 01:37:41;;;;;;;;;;;;;;;;;;2077550;28;20445;-44
2021/11/24 01:38:42;;;;;;;;;;;;;;;;;;2079468;28;19925;-43
2021/11/24 01:39:43;;;;;;;;;;;;;;;;;;2082087;28;20358;-43
2021/11/24 01:40:44;;;;;;;;;;;;;;;;;;2077333;28;19926;-43
2021/11/24 01:41:45;;;;;;;;;;;;;;;;;;2080091;28;19964;-43
2021/11/24 01:42:46;;;;;;;;;;;;;;;;;;2082141;28;20366;-43
2021/11/24 01:43:46;;;;;;;;;;;;;;;;;;2077592;28;19975;-43
2021/11/24 01:44:48;;;;;;;;;;;;;;;;;;2074673;28;19925;-43
2021/11/24 01:45:48;;;;;;;;;;;;;;;;;;2074069;28;20072;-43
2021/11/24 01:46:49;;;;;;;;;;;;;;;;;;2072863;28;19930;-44
2021/11/24 01:47:50;;;;;;;;;;;;;;;;;;2081401;28;19989;-43
2021/11/24 01:48:51;;;;;;;;;;;;;;;;;;2082289;28;19948;-44
2021/11/24 01:49:52;;;;;;;;;;;;;;;;;;2075031;28;20020;-45
2021/11/24 01:50:53;;;;;;;;;;;;;;;;;;2081863;28;19925;-43
2021/11/24 01:51:56;;;;;;;;;;;;;;;;;;2081952;28;20020;-43
2021/11/24 01:52:57;;;;;;;;;;;;;;;;;;2074131;28;20021;-44
2021/11/24 01:53:57;;;;;;;;;;;;;;;;;;2082016;28;19925;-43
2021/11/24 01:54:58;;;;;;;;;;;;;;;;;;2082187;28;20404;-44
2021/11/24 01:56:00;;;;;;;;;;;;;;;;;;2073768;28;20000;-43
2021/11/24 01:57:01;;;;;;;;;;;;;;;;;;2081898;28;20445;-44
2021/11/24 01:58:02;;;;;;;;;;;;;;;;;;2082215;28;19924;-43
2021/11/24 01:59:03;;;;;;;;;;;;;;;;;;2073917;28;20362;-43
2021/11/24 02:00:04;;;;;;;;;;;;;;;;;;2073926;28;20009;-43
2021/11/24 02:01:05;;;;;;;;;;;;;;;;;;2073494;28;20334;-43
2021/11/24 02:02:06;;;;;;;;;;;;;;;;;;2075933;28;20015;-43
2021/11/24 02:03:07;;;;;;;;;;;;;;;;;;2074860;28;19964;-43
2021/11/24 02:04:08;;;;;;;;;;;;;;;;;;2066631;28;20009;-43
2021/11/24 02:05:09;;;;;;;;;;;;;;;;;;2075697;28;19932;-43
2021/11/24 02:06:10;;;;;;;;;;;;;;;;;;2082101;28;19956;-43
2021/11/24 02:07:11;;;;;;;;;;;;;;;;;;2079028;28;19925;-44
2021/11/24 02:08:12;;;;;;;;;;;;;;;;;;2077935;28;20439;-43
2021/11/24 02:09:13;;;;;;;;;;;;;;;;;;2081947;28;19929;-44
2021/11/24 02:10:14;;;;;;;;;;;;;;;;;;2077893;28;20052;-43
2021/11/24 02:11:15;;;;;;;;;;;;;;;;;;2077386;28;20031;-44
2021/11/24 02:12:16;;;;;;;;;;;;;;;;;;2081834;28;19925;-43
2021/11/24 02:13:16;;;;;;;;;;;;;;;;;;2077436;28;20008;-44
2021/11/24 02:14:17;;;;;;;;;;;;;;;;;;2075760;28;20048;-43
2021/11/24 02:15:18;;;;;;;;;;;;;;;;;;2073886;28;20020;-44
2021/11/24 02:16:19;;;;;;;;;;;;;;;;;;2072811;28;19925;-44
2021/11/24 02:17:20;;;;;;;;;;;;;;;;;;2079592;28;19950;-43
2021/11/24 02:18:21;;;;;;;;;;;;;;;;;;2081920;28;20028;-48
2021/11/24 02:19:22;;;;;;;;;;;;;;;;;;2076519;28;20004;-48
2021/11/24 02:20:23;;;;;;;;;;;;;;;;;;2080329;28;19932;-50
2021/11/24 02:21:24;;;;;;;;;;;;;;;;;;2081789;28;20008;-49
2021/11/24 02:22:25;;;;;;;;;;;;;;;;;;2074685;28;19948;-47
2021/11/24 02:23:25;;;;;;;;;;;;;;;;;;2081043;28;19935;-49
2021/11/24 02:24:27;;;;;;;;;;;;;;;;;;2081859;28;20302;-47
2021/11/24 02:25:27;;;;;;;;;;;;;;;;;;2073906;28;20019;-48
2021/11/24 02:26:28;;;;;;;;;;;;;;;;;;2081128;28;19925;-48
2021/11/24 02:27:29;;;;;;;;;;;;;;;;;;2081791;28;20012;-49
2021/11/24 02:28:30;;;;;;;;;;;;;;;;;;2076443;28;20457;-48
2021/11/24 02:29:31;;;;;;;;;;;;;;;;;;2073492;28;19933;-48
2021/11/24 02:30:32;;;;;;;;;;;;;;;;;;2073644;28;20402;-47
2021/11/24 02:31:33;;;;;;;;;;;;;;;;;;2073539;28;19932;-49
2021/11/24 02:32:34;;;;;;;;;;;;;;;;;;2081853;28;20267;-51
2021/11/24 02:33:35;;;;;;;;;;;;;;;;;;2081701;28;19931;-48
2021/11/24 02:34:36;;;;;;;;;;;;;;;;;;2073691;28;19925;-47
2021/11/24 02:35:37;;;;;;;;;;;;;;;;;;2081919;28;19925;-47
2021/11/24 02:36:38;;;;;;;;;;;;;;;;;;2081865;28;19925;-48
2021/11/24 02:37:39;;;;;;;;;;;;;;;;;;2073458;28;20298;-47
2021/11/24 02:38:39;;;;;;;;;;;;;;;;;;2073551;28;20466;-49
2021/11/24 02:39:40;;;;;;;;;;;;;;;;;;2073358;28;20095;-48
2021/11/24 02:40:41;;;;;;;;;;;;;;;;;;2075804;28;20012;-49
2021/11/24 02:41:42;;;;;;;;;;;;;;;;;;2081865;28;19925;-47
2021/11/24 02:42:43;;;;;;;;;;;;;;;;;;2079870;28;19929;-50
2021/11/24 02:43:44;;;;;;;;;;;;;;;;;;2076993;28;19937;-50
2021/11/24 02:44:45;;;;;;;;;;;;;;;;;;2081888;28;20032;-47
2021/11/24 02:45:46;;;;;;;;;;;;;;;;;;2078806;28;20366;-49
2021/11/24 02:46:47;;;;;;;;;;;;;;;;;;2077892;28;20326;-47
2021/11/24 02:47:48;;;;;;;;;;;;;;;;;;2081598;28;19975;-48
2021/11/24 02:48:49;;;;;;;;;;;;;;;;;;2077106;28;20043;-51
2021/11/24 02:49:50;;;;;;;;;;;;;;;;;;2078153;28;19925;-48
2021/11/24 02:50:52;;;;;;;;;;;;;;;;;;2081806;28;20024;-47
2021/11/24 02:51:53;;;;;;;;;;;;;;;;;;2077027;28;20420;-47
2021/11/24 02:52:54;;;;;;;;;;;;;;;;;;2075630;28;20274;-44
2021/11/24 02:53:55;;;;;;;;;;;;;;;;;;2073524;28;19939;-44
2021/11/24 02:54:55;;;;;;;;;;;;;;;;;;2072726;28;19981;-43
2021/11/24 02:55:57;;;;;;;;;;;;;;;;;;2074672;28;19932;-44
2021/11/24 02:56:57;;;;;;;;;;;;;;;;;;2073451;28;20028;-43
2021/11/24 02:57:58;;;;;;;;;;;;;;;;;;2073200;28;19930;-44
2021/11/24 02:58:59;;;;;;;;;;;;;;;;;;2073979;28;20394;-43
2021/11/24 03:00:00;;;;;;;;;;;;;;;;;;2073150;28;19940;-43
2021/11/24 03:01:01;;;;;;;;;;;;;;;;;;2072399;28;20438;-43
2021/11/24 03:02:02;;;;;;;;;;;;;;;;;;2081014;28;19932;-43
2021/11/24 03:03:03;;;;;;;;;;;;;;;;;;2075460;28;20438;-43
2021/11/24 03:04:04;;;;;;;;;;;;;;;;;;2072263;28;19926;-44
2021/11/24 03:05:05;;;;;;;;;;;;;;;;;;2073237;28;20020;-43
2021/11/24 03:06:06;;;;;;;;;;;;;;;;;;2073278;28;19988;-44
2021/11/24 03:07:07;;;;;;;;;;;;;;;;;;2073095;28;19979;-44
2021/11/24 03:08:08;;;;;;;;;;;;;;;;;;2081619;28;19990;-44
2021/11/24 03:09:08;;;;;;;;;;;;;;;;;;2082029;28;19968;-47
2021/11/24 03:10:09;;;;;;;;;;;;;;;;;;2074355;28;19925;-49
2021/11/24 03:11:10;;;;;;;;;;;;;;;;;;2081721;28;19925;-49
2021/11/24 03:12:11;;;;;;;;;;;;;;;;;;2081560;28;19926;-50
2021/11/24 03:13:12;;;;;;;;;;;;;;;;;;2073536;28;19933;-47
2021/11/24 03:14:13;;;;;;;;;;;;;;;;;;2081628;28;19925;-51
2021/11/24 03:15:14;;;;;;;;;;;;;;;;;;2080950;28;19925;-47
2021/11/24 03:16:15;;;;;;;;;;;;;;;;;;2073732;28;20020;-48
2021/11/24 03:17:16;;;;;;;;;;;;;;;;;;2073450;28;19932;-47
2021/11/24 03:18:17;;;;;;;;;;;;;;;;;;2072883;28;19926;-48
2021/11/24 03:19:18;;;;;;;;;;;;;;;;;;2075930;28;20401;-47
2021/11/24 03:20:19;;;;;;;;;;;;;;;;;;2081517;28;19987;-47
2021/11/24 03:21:20;;;;;;;;;;;;;;;;;;2079788;28;19972;-48
2021/11/24 03:22:22;;;;;;;;;;;;;;;;;;2073250;28;20317;-47
2021/11/24 03:23:23;;;;;;;;;;;;;;;;;;2073253;28;19925;-49
2021/11/24 03:24:42;;;;;;;;;;;;;;;;;;2073379;28;19926;-48
2021/11/24 03:25:43;;;;;;;;;;;;;;;;;;2081413;28;19925;-49
2021/11/24 03:26:44;;;;;;;;;;;;;;;;;;2081619;28;20028;-48
2021/11/24 03:27:45;;;;;;;;;;;;;;;;;;2074364;28;19925;-48
2021/11/24 03:28:45;;;;;;;;;;;;;;;;;;2073534;28;19926;-48
2021/11/24 03:29:46;;;;;;;;;;;;;;;;;;2072711;28;19929;-48
2021/11/24 03:30:47;;;;;;;;;;;;;;;;;;2075013;28;20441;-48
2021/11/24 03:31:48;;;;;;;;;;;;;;;;;;2081600;28;19971;-48
2021/11/24 03:32:49;;;;;;;;;;;;;;;;;;2080176;28;19925;-50
2021/11/24 03:33:50;;;;;;;;;;;;;;;;;;2075583;28;19945;-48
2021/11/24 03:34:51;;;;;;;;;;;;;;;;;;2081421;28;19994;-48
2021/11/24 03:35:52;;;;;;;;;;;;;;;;;;2079800;28;19983;-48
2021/11/24 03:36:53;;;;;;;;;;;;;;;;;;2074729;28;19933;-48
2021/11/24 03:37:54;;;;;;;;;;;;;;;;;;2073411;28;19925;-48
2021/11/24 03:38:54;;;;;;;;;;;;;;;;;;2072099;28;19925;-48
2021/11/24 03:39:56;;;;;;;;;;;;;;;;;;2077687;28;19925;-50
2021/11/24 03:40:56;;;;;;;;;;;;;;;;;;2081408;28;20079;-48
2021/11/24 03:41:57;;;;;;;;;;;;;;;;;;2076826;28;19926;-47
2021/11/24 03:42:58;;;;;;;;;;;;;;;;;;2075823;28;20004;-48
2021/11/24 03:43:59;;;;;;;;;;;;;;;;;;2073337;28;19969;-48
2021/11/24 03:45:00;;;;;;;;;;;;;;;;;;2072167;28;20290;-48
2021/11/24 03:46:01;;;;;;;;;;;;;;;;;;2078559;28;20011;-50
2021/11/24 03:47:02;;;;;;;;;;;;;;;;;;2081259;28;19925;-47
2021/11/24 03:48:03;;;;;;;;;;;;;;;;;;2076770;28;19976;-48
2021/11/24 03:49:04;;;;;;;;;;;;;;;;;;2074562;28;19932;-50
2021/11/24 03:50:04;;;;;;;;;;;;;;;;;;2073240;28;19967;-51
2021/11/24 03:51:06;;;;;;;;;;;;;;;;;;2072173;28;19926;-48
2021/11/24 03:52:06;;;;;;;;;;;;;;;;;;2078878;28;19924;-48
2021/11/24 03:53:08;;;;;;;;;;;;;;;;;;2081667;28;19925;-49
2021/11/24 03:54:08;;;;;;;;;;;;;;;;;;2076612;28;20021;-50
2021/11/24 03:55:09;;;;;;;;;;;;;;;;;;2073275;28;19953;-50
2021/11/24 03:56:10;;;;;;;;;;;;;;;;;;2072856;28;20012;-49
2021/11/24 03:57:11;;;;;;;;;;;;;;;;;;2071991;28;19932;-51
2021/11/24 03:58:12;;;;;;;;;;;;;;;;;;2081210;28;19926;-50
2021/11/24 03:59:13;;;;;;;;;;;;;;;;;;2081330;28;19999;-51
2021/11/24 04:00:14;;;;;;;;;;;;;;;;;;2075572;28;19979;-50
2021/11/24 04:01:15;;;;;;;;;;;;;;;;;;2072958;28;20024;-48
2021/11/24 04:02:16;;;;;;;;;;;;;;;;;;2073034;28;20339;-47
2021/11/24 04:03:17;;;;;;;;;;;;;;;;;;2070693;28;19940;-47
2021/11/24 04:04:18;;;;;;;;;;;;;;;;;;2081302;28;19924;-48
2021/11/24 04:05:19;;;;;;;;;;;;;;;;;;2081294;28;19925;-48
2021/11/24 04:06:20;;;;;;;;;;;;;;;;;;2074171;28;19932;-49
2021/11/24 04:07:21;;;;;;;;;;;;;;;;;;2081295;28;20337;-51
2021/11/24 04:08:22;;;;;;;;;;;;;;;;;;2080651;28;19925;-48
2021/11/24 04:09:23;;;;;;;;;;;;;;;;;;2074484;28;20029;-48
2021/11/24 04:10:24;;;;;;;;;;;;;;;;;;2073037;28;19944;-49
2021/11/24 04:11:25;;;;;;;;;;;;;;;;;;2072895;28;19949;-43
2021/11/24 04:12:25;;;;;;;;;;;;;;;;;;2074184;28;19932;-44
2021/11/24 04:13:26;;;;;;;;;;;;;;;;;;2073221;28;19925;-43
2021/11/24 04:14:27;;;;;;;;;;;;;;;;;;2072435;28;19951;-43
2021/11/24 04:15:28;;;;;;;;;;;;;;;;;;2076563;28;19925;-43
2021/11/24 04:16:29;;;;;;;;;;;;;;;;;;2081317;28;20023;-44
2021/11/24 04:17:30;;;;;;;;;;;;;;;;;;2077972;28;19924;-43
2021/11/24 04:18:31;;;;;;;;;;;;;;;;;;2076895;28;20336;-44
2021/11/24 04:19:32;;;;;;;;;;;;;;;;;;2074603;28;20367;-43
2021/11/24 04:20:33;;;;;;;;;;;;;;;;;;2072815;28;19940;-44
2021/11/24 04:21:34;;;;;;;;;;;;;;;;;;2076759;28;20394;-43
2021/11/24 04:22:35;;;;;;;;;;;;;;;;;;2074389;28;20044;-43
2021/11/24 04:23:35;;;;;;;;;;;;;;;;;;2073483;28;19973;-43
2021/11/24 04:24:37;;;;;;;;;;;;;;;;;;2079991;28;20305;-44
2021/11/24 04:25:38;;;;;;;;;;;;;;;;;;2082663;28;20094;-43
2021/11/24 04:26:39;;;;;;;;;;;;;;;;;;2076279;28;20037;-43
2021/11/24 04:27:40;;;;;;;;;;;;;;;;;;2080834;28;19980;-44
2021/11/24 04:28:41;;;;;;;;;;;;;;;;;;2082626;28;19925;-45
2021/11/24 04:29:42;;;;;;;;;;;;;;;;;;2077910;28;20355;-44
2021/11/24 04:30:42;;;;;;;;;;;;;;;;;;2074937;28;20020;-43
2021/11/24 04:31:43;;;;;;;;;;;;;;;;;;2074729;28;20280;-49
2021/11/24 04:32:44;;;;;;;;;;;;;;;;;;2074991;28;20024;-49
2021/11/24 04:33:45;;;;;;;;;;;;;;;;;;2074410;28;19925;-48
2021/11/24 04:34:46;;;;;;;;;;;;;;;;;;2074567;28;19932;-47
2021/11/24 04:35:48;;;;;;;;;;;;;;;;;;2074175;28;20011;-51
2021/11/24 04:36:49;;;;;;;;;;;;;;;;;;2074244;28;20040;-47
2021/11/24 04:37:51;;;;;;;;;;;;;;;;;;2074480;28;19932;-48
2021/11/24 04:38:52;;;;;;;;;;;;;;;;;;2075320;28;20016;-48
2021/11/24 04:39:53;;;;;;;;;;;;;;;;;;2074298;28;20422;-48
2021/11/24 04:40:55;;;;;;;;;;;;;;;;;;2074304;28;19926;-48
2021/11/24 04:41:55;;;;;;;;;;;;;;;;;;2074975;28;19926;-50
2021/11/24 04:42:56;;;;;;;;;;;;;;;;;;2082627;28;20378;-49
2021/11/24 04:43:57;;;;;;;;;;;;;;;;;;2082031;28;19978;-43
2021/11/24 04:44:58;;;;;;;;;;;;;;;;;;2075913;28;19964;-48
2021/11/24 04:46:00;;;;;;;;;;;;;;;;;;2074282;28;20446;-47
2021/11/24 04:47:01;;;;;;;;;;;;;;;;;;2073789;28;20192;-48
2021/11/24 04:48:02;;;;;;;;;;;;;;;;;;2076805;28;20016;-47
2021/11/24 04:49:03;;;;;;;;;;;;;;;;;;2082677;28;20382;-43
2021/11/24 04:50:04;;;;;;;;;;;;;;;;;;2080104;28;19925;-43
2021/11/24 04:51:05;;;;;;;;;;;;;;;;;;2074965;28;20430;-43
2021/11/24 04:52:06;;;;;;;;;;;;;;;;;;2073978;28;19971;-43
2021/11/24 04:53:07;;;;;;;;;;;;;;;;;;2072880;28;19925;-43
2021/11/24 04:54:08;;;;;;;;;;;;;;;;;;2079339;28;20378;-43
2021/11/24 04:55:10;;;;;;;;;;;;;;;;;;2082552;28;19925;-43
2021/11/24 04:56:10;;;;;;;;;;;;;;;;;;2078007;28;20008;-43
2021/11/24 04:57:11;;;;;;;;;;;;;;;;;;2076412;28;19925;-44
2021/11/24 04:58:12;;;;;;;;;;;;;;;;;;2074198;28;20008;-43
2021/11/24 04:59:14;;;;;;;;;;;;;;;;;;2073322;28;19964;-44
2021/11/24 05:00:17;;;;;;;;;;;;;;;;;;2079680;28;20367;-43
2021/11/24 05:01:18;;;;;;;;;;;;;;;;;;2082353;28;19964;-43
2021/11/24 05:02:19;;;;;;;;;;;;;;;;;;2075611;28;20403;-47
2021/11/24 05:03:20;;;;;;;;;;;;;;;;;;2068338;28;19933;-47
2021/11/24 05:04:22;;;;;;;;;;;;;;;;;;2066072;28;19969;-48
2021/11/24 05:05:25;;;;;;;;;;;;;;;;;;2074260;28;20368;-48
2021/11/24 05:06:26;;;;;;;;;;;;;;;;;;2082403;28;19978;-51
2021/11/24 05:07:27;;;;;;;;;;;;;;;;;;2081630;28;20435;-47
2021/11/24 05:08:35;;;;;;;;;;;;;;;;;;2077391;28;20314;-49
2021/11/24 05:09:36;;;;;;;;;;;;;;;;;;2082308;28;19932;-48
2021/11/24 05:10:37;;;;;;;;;;;;;;;;;;2079320;28;20004;-48
2021/11/24 05:11:38;;;;;;;;;;;;;;;;;;2076294;28;19925;-47
2021/11/24 05:12:38;;;;;;;;;;;;;;;;;;2074385;28;20016;-47
2021/11/24 05:13:41;;;;;;;;;;;;;;;;;;2072162;28;19926;-47
2021/11/24 05:14:42;;;;;;;;;;;;;;;;;;2079118;28;19933;-48
2021/11/24 05:15:44;;;;;;;;;;;;;;;;;;2082308;28;20467;-49
2021/11/24 05:16:47;;;;;;;;;;;;;;;;;;2076713;28;19941;-48
2021/11/24 05:17:55;;;;;;;;;;;;;;;;;;2081599;28;19936;-48
2021/11/24 05:18:55;;;;;;;;;;;;;;;;;;2082366;28;20011;-48
2021/11/24 05:19:56;;;;;;;;;;;;;;;;;;2077462;28;19925;-48
2021/11/24 05:21:03;;;;;;;;;;;;;;;;;;2074210;28;19980;-48
2021/11/24 05:22:05;;;;;;;;;;;;;;;;;;2074043;28;20048;-48
2021/11/24 05:23:08;;;;;;;;;;;;;;;;;;2074852;28;19926;-47
2021/11/24 05:24:09;;;;;;;;;;;;;;;;;;2074180;28;20016;-47
2021/11/24 05:25:09;;;;;;;;;;;;;;;;;;2074107;28;20020;-51
2021/11/24 05:26:10;;;;;;;;;;;;;;;;;;2075213;28;20260;-44
2021/11/24 05:27:12;;;;;;;;;;;;;;;;;;2082108;28;20062;-43
2021/11/24 05:28:13;;;;;;;;;;;;;;;;;;2081412;28;20008;-45
2021/11/24 05:29:13;;;;;;;;;;;;;;;;;;2074968;28;19973;-44
2021/11/24 05:30:14;;;;;;;;;;;;;;;;;;2074208;28;19932;-48
2021/11/24 05:31:15;;;;;;;;;;;;;;;;;;2073571;28;20004;-49
2021/11/24 05:32:16;;;;;;;;;;;;;;;;;;2076592;28;19925;-44
2021/11/24 05:33:17;;;;;;;;;;;;;;;;;;2082228;28;20020;-44
2021/11/24 05:34:18;;;;;;;;;;;;;;;;;;2079716;28;19932;-46
2021/11/24 05:35:21;;;;;;;;;;;;;;;;;;2077791;28;19925;-44
2021/11/24 05:36:22;;;;;;;;;;;;;;;;;;2082151;28;20495;-44
2021/11/24 05:37:22;;;;;;;;;;;;;;;;;;2077754;28;20021;-43
2021/11/24 05:38:23;;;;;;;;;;;;;;;;;;2078513;28;20302;-44
2021/11/24 05:39:25;;;;;;;;;;;;;;;;;;2082277;28;20023;-44
2021/11/24 05:40:25;;;;;;;;;;;;;;;;;;2077732;28;19925;-44
2021/11/24 05:41:26;;;;;;;;;;;;;;;;;;2079674;28;20560;-44
2021/11/24 05:42:28;;;;;;;;;;;;;;;;;;2082016;28;19972;-43
2021/11/24 05:43:29;;;;;;;;;;;;;;;;;;2076337;28;20020;-44
2021/11/24 05:44:33;;;;;;;;;;;;;;;;;;2078647;28;20016;-44
2021/11/24 05:45:39;;;;;;;;;;;;;;;;;;2082010;28;20039;-45
2021/11/24 05:46:43;;;;;;;;;;;;;;;;;;2077197;28;20020;-45
2021/11/24 05:47:54;;;;;;;;;;;;;;;;;;2073667;28;19925;-44
2021/11/24 05:49:12;;;;;;;;;;;;;;;;;;2066928;28;19976;-49
2021/11/24 05:50:12;;;;;;;;;;;;;;;;;;2078719;28;19925;-50
2021/11/24 05:51:13;;;;;;;;;;;;;;;;;;2082268;28;19926;-47
2021/11/24 05:52:14;;;;;;;;;;;;;;;;;;2077541;28;19964;-48
2021/11/24 05:53:16;;;;;;;;;;;;;;;;;;2076449;28;20016;-49
2021/11/24 05:54:17;;;;;;;;;;;;;;;;;;2073878;28;19925;-48
2021/11/24 05:55:17;;;;;;;;;;;;;;;;;;2072841;28;20010;-49
2021/11/24 05:56:19;;;;;;;;;;;;;;;;;;2075606;28;19929;-48
2021/11/24 05:57:19;;;;;;;;;;;;;;;;;;2073887;28;19926;-51
2021/11/24 05:58:21;;;;;;;;;;;;;;;;;;2072962;28;21384;-48
2021/11/24 05:59:22;;;;;;;;;;;;;;;;;;2079663;28;20028;-49
2021/11/24 06:00:23;;;;;;;;;;;;;;;;;;2082111;28;20016;-48
2021/11/24 06:01:24;;;;;;;;;;;;;;;;;;2076388;28;19932;-49
2021/11/24 06:02:25;;;;;;;;;;;;;;;;;;2081059;28;19925;-48
2021/11/24 06:03:26;;;;;;;;;;;;;;;;;;2069779;28;19940;-46
2021/11/24 06:04:27;;;;;;;;;;;;;;;;;;2070068;28;19925;-49
2021/11/24 06:05:28;;;;;;;;;;;;;;;;;;2081696;28;20062;-48
2021/11/24 06:06:30;;;;;;;;;;;;;;;;;;2081916;28;19951;-48
2021/11/24 06:07:31;;;;;;;;;;;;;;;;;;2074790;28;20081;-47
2021/11/24 06:08:32;;;;;;;;;;;;;;;;;;2081869;28;19938;-47
2021/11/24 06:09:32;;;;;;;;;;;;;;;;;;2082137;28;19933;-48
2021/11/24 06:10:33;;;;;;;;;;;;;;;;;;2073494;28;19925;-47
2021/11/24 06:11:34;;;;;;;;;;;;;;;;;;2081510;28;20046;-49
2021/11/24 06:12:35;;;;;;;;;;;;;;;;;;2080444;28;19925;-48
2021/11/24 06:13:37;;;;;;;;;;;;;;;;;;2074725;28;19925;-50
2021/11/24 06:14:37;;;;;;;;;;;;;;;;;;2073783;28;19953;-48
2021/11/24 06:15:38;;;;;;;;;;;;;;;;;;2073871;28;19925;-47
2021/11/24 06:16:39;;;;;;;;;;;;;;;;;;2075279;28;19926;-48
2021/11/24 06:17:40;;;;;;;;;;;;;;;;;;2081923;28;19925;-48
2021/11/24 06:18:41;;;;;;;;;;;;;;;;;;2080938;28;20031;-44
2021/11/24 06:19:42;;;;;;;;;;;;;;;;;;2075941;28;19925;-45
2021/11/24 06:20:43;;;;;;;;;;;;;;;;;;2081850;28;19976;-44
2021/11/24 06:21:44;;;;;;;;;;;;;;;;;;2080171;28;19926;-45
2021/11/24 06:22:45;;;;;;;;;;;;;;;;;;2076838;28;19933;-44
2021/11/24 06:23:46;;;;;;;;;;;;;;;;;;2081747;28;20370;-43
2021/11/24 06:24:47;;;;;;;;;;;;;;;;;;2078923;28;19970;-44
2021/11/24 06:25:48;;;;;;;;;;;;;;;;;;2077990;28;20444;-45
2021/11/24 06:26:48;;;;;;;;;;;;;;;;;;2082040;28;19925;-46
2021/11/24 06:27:49;;;;;;;;;;;;;;;;;;2077345;28;20322;-45
2021/11/24 06:28:50;;;;;;;;;;;;;;;;;;2079310;28;20027;-45
2021/11/24 06:29:51;;;;;;;;;;;;;;;;;;2081817;28;19929;-44
2021/11/24 06:30:52;;;;;;;;;;;;;;;;;;2077339;28;19980;-46
2021/11/24 06:31:53;;;;;;;;;;;;;;;;;;2075634;28;19940;-44
2021/11/24 06:32:55;;;;;;;;;;;;;;;;;;2073794;28;19941;-45
2021/11/24 06:33:56;;;;;;;;;;;;;;;;;;2072638;28;19968;-43
2021/11/24 06:34:56;;;;;;;;;;;;;;;;;;2079595;28;19976;-45
2021/11/24 06:35:57;;;;;;;;;;;;;;;;;;2081906;28;19933;-45
2021/11/24 06:36:58;;;;;;;;;;;;;;;;;;2074972;28;19937;-45
2021/11/24 06:37:59;;;;;;;;;;;;;;;;;;2079543;28;19947;-46
2021/11/24 06:39:00;;;;;;;;;;;;;;;;;;2081800;28;19987;-45
2021/11/24 06:40:02;;;;;;;;;;;;;;;;;;2073849;28;19972;-47
2021/11/24 06:41:03;;;;;;;;;;;;;;;;;;2080939;28;19969;-48
2021/11/24 06:42:04;;;;;;;;;;;;;;;;;;2081772;28;19948;-44
2021/11/24 06:43:05;;;;;;;;;;;;;;;;;;2076617;28;20019;-43
2021/11/24 06:44:06;;;;;;;;;;;;;;;;;;2073392;28;19968;-45
2021/11/24 06:45:07;;;;;;;;;;;;;;;;;;2073321;28;19948;-44
2021/11/24 06:46:08;;;;;;;;;;;;;;;;;;2073081;28;20008;-46
2021/11/24 06:47:09;;;;;;;;;;;;;;;;;;2081773;28;19932;-44
2021/11/24 06:48:10;;;;;;;;;;;;;;;;;;2081730;28;19925;-45
2021/11/24 06:49:11;;;;;;;;;;;;;;;;;;2074599;28;19981;-45
2021/11/24 06:50:12;;;;;;;;;;;;;;;;;;2081782;28;19929;-45
2021/11/24 06:51:13;;;;;;;;;;;;;;;;;;2081850;28;20028;-45
2021/11/24 06:52:14;;;;;;;;;;;;;;;;;;2074240;28;20004;-45
2021/11/24 06:53:15;;;;;;;;;;;;;;;;;;2075649;28;19925;-47
2021/11/24 06:54:16;;;;;;;;;;;;;;;;;;2072904;28;20017;-45
2021/11/24 06:55:18;;;;;;;;;;;;;;;;;;2073442;28;20012;-45
2021/11/24 06:56:19;;;;;;;;;;;;;;;;;;2073421;28;20012;-47
2021/11/24 06:57:19;;;;;;;;;;;;;;;;;;2072931;28;20083;-44